Time;durP1;ratioP1;P1;durP2;ratioP2;P2;SDS_P1;SDS_P2;PMS_P1;PMS_P2;Temp;Humidity;BMP_temperature;BMP_pressure;BME280_temperature;BME280_humidity;BME280_pressure;Samples;Min_cycle;Max_cycle;Signal;HPM_P1;HPM_P2
2022/06/29 00:00:21;;;;;;;7.55;3.80;;;;;;;15.29;86.31;100025.02;1722442;82;21562;-61
2022/06/29 00:02:50;;;;;;;6.95;3.77;;;;;;;15.32;86.16;100027.45;1726914;82;21078;-62
2022/06/29 00:05:23;;;;;;;10.82;4.75;;;;;;;15.31;86.58;100023.11;1722979;81;22235;-62
2022/06/29 00:07:52;;;;;;;9.45;4.90;;;;;;;15.30;86.45;100024.06;1718434;81;21147;-61
2022/06/29 00:10:21;;;;;;;8.13;4.58;;;;;;;15.30;86.36;100026.69;1722570;82;21387;-61
2022/06/29 00:12:48;;;;;;;4.75;3.95;;;;;;;15.30;86.38;100021.43;1722636;82;21546;-61
2022/06/29 00:15:17;;;;;;;8.23;4.35;;;;;;;15.30;86.37;100029.32;1718574;81;21047;-60
2022/06/29 00:17:44;;;;;;;6.62;5.20;;;;;;;15.30;86.93;100034.59;1680095;83;21448;-61
2022/06/29 00:23:52;;;;;;;5.87;4.53;;;;;;;15.29;86.83;100038.16;1719661;81;20118;-61
2022/06/29 00:26:18;;;;;;;11.53;5.03;;;;;;;15.29;86.59;100037.30;1719877;81;20951;-61
2022/06/29 00:28:45;;;;;;;7.97;4.95;;;;;;;15.26;86.62;100035.70;1718614;81;20970;-61
2022/06/29 00:31:12;;;;;;;6.65;4.37;;;;;;;15.25;86.68;100034.02;1686656;83;21081;-61
2022/06/29 00:33:39;;;;;;;4.42;3.98;;;;;;;15.23;86.86;100030.63;1712373;81;21090;-61
2022/06/29 00:36:06;;;;;;;6.22;5.05;;;;;;;15.21;87.22;100029.91;1709887;81;20951;-61
2022/06/29 00:38:33;;;;;;;7.00;4.35;;;;;;;15.17;87.28;100031.02;1714003;82;21675;-61
2022/06/29 00:40:59;;;;;;;7.78;5.20;;;;;;;15.12;87.32;100025.18;1712905;81;20999;-60
2022/06/29 00:43:26;;;;;;;6.87;4.92;;;;;;;15.12;87.55;100033.07;1716422;83;21565;-61
2022/06/29 00:45:53;;;;;;;10.65;5.58;;;;;;;15.09;87.47;100020.11;1720154;82;21539;-61
2022/06/29 00:48:20;;;;;;;8.08;4.87;;;;;;;15.09;87.78;100026.69;1717602;83;21600;-61
2022/06/29 00:50:48;;;;;;;11.22;5.55;;;;;;;15.09;88.17;100025.38;1723411;83;21054;-61
2022/06/29 00:53:20;;;;;;;9.53;6.22;;;;;;;15.07;87.70;100021.98;1712786;82;21066;-61
2022/06/29 00:55:49;;;;;;;9.05;5.97;;;;;;;15.05;88.18;100015.99;1717745;82;21479;-61
2022/06/29 00:58:20;;;;;;;11.68;5.87;;;;;;;15.04;88.10;100019.54;1686729;83;21635;-61
2022/06/29 01:00:46;;;;;;;7.72;5.47;;;;;;;15.02;88.07;100018.81;1720601;82;21103;-61
2022/06/29 01:03:13;;;;;;;5.95;5.28;;;;;;;15.02;88.14;100020.13;1720859;82;21583;-61
2022/06/29 01:05:40;;;;;;;5.50;4.62;;;;;;;15.02;89.20;100021.44;1715362;82;21054;-60
2022/06/29 01:08:07;;;;;;;8.38;4.55;;;;;;;15.03;88.55;100017.86;1722312;83;21042;-60
2022/06/29 01:10:33;;;;;;;6.58;5.03;;;;;;;15.01;88.54;100014.00;1722994;82;21001;-61
2022/06/29 01:13:00;;;;;;;10.78;5.00;;;;;;;15.00;88.77;100007.90;1719478;82;20984;-60
2022/06/29 01:15:27;;;;;;;9.93;5.83;;;;;;;14.97;88.53;100013.34;1712725;81;21525;-60
2022/06/29 01:17:54;;;;;;;10.10;5.28;;;;;;;14.98;88.52;100013.74;1720135;82;21020;-61
2022/06/29 01:20:21;;;;;;;7.15;5.08;;;;;;;15.00;88.66;100014.47;1711987;81;21516;-60
2022/06/29 01:22:48;;;;;;;6.60;5.30;;;;;;;15.04;88.65;100003.77;1717213;82;21559;-60
2022/06/29 01:25:14;;;;;;;6.03;4.60;;;;;;;15.10;88.62;100003.41;1725964;81;21081;-61
2022/06/29 01:27:41;;;;;;;8.23;5.00;;;;;;;15.12;88.70;99998.88;1697752;82;21606;-61
2022/06/29 01:30:10;;;;;;;11.25;5.22;;;;;;;15.14;88.64;100006.22;1693798;83;21028;-62
2022/06/29 01:32:40;;;;;;;8.10;5.45;;;;;;;15.14;88.72;100004.91;1717825;81;21049;-60
2022/06/29 01:35:13;;;;;;;6.30;5.10;;;;;;;15.14;88.72;100003.11;1712070;83;21050;-61
2022/06/29 01:37:42;;;;;;;5.92;4.67;;;;;;;15.13;88.78;100005.85;1716874;83;21022;-61
2022/06/29 01:40:11;;;;;;;6.85;5.25;;;;;;;15.18;88.76;100009.05;1723019;81;21094;-61
2022/06/29 01:42:38;;;;;;;6.67;4.25;;;;;;;15.14;90.28;100008.37;1711848;81;21596;-61
2022/06/29 01:45:07;;;;;;;8.10;5.17;;;;;;;15.08;89.26;100009.23;1711766;83;22297;-61
2022/06/29 01:47:33;;;;;;;8.68;5.22;;;;;;;15.06;89.10;100008.47;1711971;82;21042;-61
2022/06/29 01:50:00;;;;;;;6.70;5.00;;;;;;;15.05;89.29;100004.16;1710641;82;20979;-61
2022/06/29 01:52:27;;;;;;;9.07;4.83;;;;;;;15.02;89.26;99995.15;1709303;81;21656;-61
2022/06/29 01:54:54;;;;;;;7.78;5.25;;;;;;;14.95;89.61;99991.55;1717489;82;21163;-61
2022/06/29 01:57:20;;;;;;;8.65;5.80;;;;;;;14.91;89.71;99994.01;1709552;81;21625;-61
2022/06/29 01:59:47;;;;;;;6.43;4.93;;;;;;;14.89;89.55;99987.98;1716861;81;20998;-61
2022/06/29 02:02:14;;;;;;;7.03;4.62;;;;;;;14.88;89.38;99982.37;1720180;81;21067;-61
2022/06/29 02:04:41;;;;;;;5.22;4.58;;;;;;;14.88;89.37;99981.05;1717835;81;20987;-61
2022/06/29 02:07:07;;;;;;;9.37;5.30;;;;;;;14.87;89.55;99979.38;1717265;81;21014;-61
2022/06/29 02:09:34;;;;;;;6.90;4.97;;;;;;;14.84;89.71;99975.59;1716880;81;21758;-60
2022/06/29 02:12:00;;;;;;;6.80;5.20;;;;;;;14.83;89.43;99971.75;1720409;81;21585;-61
2022/06/29 02:14:29;;;;;;;6.65;5.10;;;;;;;14.79;89.38;99971.11;1722214;81;21054;-61
2022/06/29 02:16:56;;;;;;;7.12;4.75;;;;;;;14.79;89.41;99975.05;1718546;81;21042;-61
2022/06/29 02:19:23;;;;;;;8.00;5.70;;;;;;;14.74;89.35;99975.79;1721171;82;21044;-61
2022/06/29 02:21:49;;;;;;;6.35;4.87;;;;;;;14.69;89.72;99962.08;1719269;82;21867;-61
2022/06/29 02:24:16;;;;;;;9.48;5.25;;;;;;;14.65;89.53;99961.91;1722801;81;21105;-61
2022/06/29 02:26:43;;;;;;;6.95;4.97;;;;;;;14.60;89.36;99952.12;1725841;80;20990;-61
2022/06/29 02:29:09;;;;;;;12.25;5.62;;;;;;;14.55;89.57;99966.38;1721991;82;21003;-61
2022/06/29 02:37:06;;;;;;;9.05;5.33;;;;;;;14.44;89.52;99953.00;1730350;82;21446;-61
2022/06/29 02:39:33;;;;;;;7.65;5.30;;;;;;;14.42;89.71;99960.11;1719423;82;21053;-61
2022/06/29 02:42:00;;;;;;;10.05;6.05;;;;;;;14.39;89.95;99952.42;1716959;82;21180;-61
2022/06/29 02:44:27;;;;;;;8.48;5.95;;;;;;;14.39;89.92;99952.42;1722835;82;26655;-61
2022/06/29 02:46:54;;;;;;;10.78;6.62;;;;;;;14.42;89.95;99952.23;1711869;82;21992;-61
2022/06/29 02:49:20;;;;;;;9.20;6.33;;;;;;;14.48;90.04;99954.52;1716588;82;21021;-61
2022/06/29 02:51:47;;;;;;;11.48;7.20;;;;;;;14.54;89.99;99940.20;1709318;82;21583;-60
2022/06/29 02:54:14;;;;;;;7.87;6.17;;;;;;;14.57;90.01;99943.13;1712220;82;21026;-61
2022/06/29 02:56:40;;;;;;;7.72;6.45;;;;;;;14.61;90.03;99953.33;1717430;81;20949;-61
2022/06/29 02:59:07;;;;;;;9.40;6.73;;;;;;;14.68;90.11;99952.52;1714913;82;21097;-61
2022/06/29 03:01:35;;;;;;;13.53;6.78;;;;;;;14.75;90.19;99948.55;1711107;82;21014;-61
2022/06/29 03:04:01;;;;;;;9.85;7.15;;;;;;;14.87;90.34;99953.08;1716922;81;24350;-61
2022/06/29 03:06:28;;;;;;;15.67;6.70;;;;;;;14.95;90.41;99950.80;1716372;82;21014;-60
2022/06/29 03:08:55;;;;;;;12.73;6.80;;;;;;;15.07;90.36;99948.34;1712470;82;21577;-61
2022/06/29 03:11:22;;;;;;;14.33;7.63;;;;;;;15.12;90.26;99954.17;1714026;82;21140;-61
2022/06/29 03:13:48;;;;;;;11.30;7.62;;;;;;;15.15;90.08;99953.98;1720195;82;21284;-61
2022/06/29 03:16:15;;;;;;;10.72;7.42;;;;;;;15.15;90.06;99949.59;1710819;82;22268;-61
2022/06/29 03:18:42;;;;;;;18.87;8.28;;;;;;;15.18;90.18;99949.88;1728679;81;21006;-61
2022/06/29 03:21:10;;;;;;;16.95;8.08;;;;;;;15.20;90.22;99946.17;1713030;82;21629;-61
2022/06/29 03:23:38;;;;;;;13.70;6.83;;;;;;;15.21;90.32;99943.09;1714119;82;21212;-61
2022/06/29 03:26:05;;;;;;;10.32;7.35;;;;;;;15.21;90.41;99945.73;1719510;82;21595;-61
2022/06/29 03:28:31;;;;;;;20.30;7.55;;;;;;;15.17;90.45;99950.79;1717597;82;21555;-61
2022/06/29 03:30:58;;;;;;;8.98;6.95;;;;;;;15.17;90.57;99949.48;1712452;82;21125;-61
2022/06/29 03:33:25;;;;;;;16.85;6.90;;;;;;;15.15;90.74;99938.20;1720639;82;21523;-61
2022/06/29 03:35:51;;;;;;;8.53;6.08;;;;;;;15.17;90.70;99937.64;1730323;82;21459;-61
2022/06/29 03:38:18;;;;;;;10.05;6.42;;;;;;;15.18;91.19;99935.41;1710787;82;21014;-61
2022/06/29 03:40:45;;;;;;;9.83;6.22;;;;;;;15.17;91.73;99937.64;1719397;80;21013;-61
2022/06/29 03:43:11;;;;;;;15.40;6.97;;;;;;;15.14;91.21;99943.09;1718934;82;21107;-61
2022/06/29 03:45:39;;;;;;;18.40;7.22;;;;;;;15.16;91.49;99937.28;1716779;82;21835;-61
2022/06/29 03:48:06;;;;;;;11.57;8.10;;;;;;;15.18;91.40;99943.30;1712869;81;21456;-61
2022/06/29 03:50:33;;;;;;;13.85;6.90;;;;;;;15.22;91.41;99946.09;1722884;82;21096;-61
2022/06/29 03:53:00;;;;;;;20.23;7.08;;;;;;;15.19;91.58;99962.07;1733922;82;21006;-61
2022/06/29 03:55:27;;;;;;;30.43;7.08;;;;;;;15.19;91.90;99950.23;1724847;82;21356;-60
2022/06/29 03:57:54;;;;;;;36.08;6.87;;;;;;;15.18;92.35;99955.13;1726613;82;21033;-61
2022/06/29 04:00:21;;;;;;;15.93;7.03;;;;;;;15.20;92.28;99955.37;1713307;82;21422;-61
2022/06/29 04:02:48;;;;;;;20.70;7.25;;;;;;;15.26;92.23;99963.83;1716375;82;22636;-61
2022/06/29 04:05:15;;;;;;;23.75;7.25;;;;;;;15.27;92.26;99963.75;1708380;81;21565;-61
2022/06/29 04:07:41;;;;;;;47.58;7.55;;;;;;;15.39;92.45;99968.23;1722384;82;20951;-61
2022/06/29 04:10:09;;;;;;;8.47;6.30;;;;;;;15.54;92.30;99973.45;1710616;82;21168;-61
2022/06/29 04:12:37;;;;;;;6.25;5.65;;;;;;;15.59;92.23;99964.80;1713710;82;21406;-61
2022/06/29 04:15:06;;;;;;;15.63;6.35;;;;;;;15.58;92.09;99969.70;1719152;82;21020;-61
2022/06/29 04:17:33;;;;;;;13.05;6.10;;;;;;;15.53;92.03;99967.83;1717661;82;21443;-61
2022/06/29 04:20:03;;;;;;;11.05;6.35;;;;;;;15.54;91.97;99962.92;1713700;82;21659;-61
2022/06/29 04:22:30;;;;;;;7.30;5.70;;;;;;;15.56;92.14;99968.95;1714509;82;20923;-61
2022/06/29 04:24:57;;;;;;;8.10;5.50;;;;;;;15.59;91.85;99972.22;1710076;82;21819;-62
2022/06/29 04:27:24;;;;;;;10.58;6.28;;;;;;;15.65;91.87;99970.98;1711997;82;21537;-61
2022/06/29 04:29:51;;;;;;;9.53;5.17;;;;;;;15.67;91.87;99973.05;1711065;82;21068;-61
2022/06/29 04:32:17;;;;;;;5.75;5.15;;;;;;;15.94;92.85;99969.62;1715218;82;21092;-62
2022/06/29 04:34:44;;;;;;;7.25;5.50;;;;;;;16.13;91.64;99968.74;1714679;82;21165;-61
2022/06/29 04:37:11;;;;;;;8.95;4.47;;;;;;;16.16;90.91;99963.30;1715150;82;20981;-61
2022/06/29 04:39:37;;;;;;;6.25;4.83;;;;;;;16.27;91.71;99952.89;1713572;81;21026;-61
2022/06/29 04:42:05;;;;;;;5.92;4.65;;;;;;;16.54;91.60;99956.74;1718849;81;21555;-61
2022/06/29 04:44:31;;;;;;;;;;;;;;;16.64;91.17;99953.02;1717454;81;20950;-61
2022/06/29 04:46:58;;;;;;;5.58;4.33;;;;;;;16.85;91.51;99956.46;1714765;82;20158;-61
2022/06/29 04:49:25;;;;;;;5.87;4.20;;;;;;;16.95;90.86;99948.28;1719643;82;21124;-62
2022/06/29 04:51:52;;;;;;;6.40;4.22;;;;;;;16.91;90.32;99946.80;1707728;82;21165;-61
2022/06/29 04:54:19;;;;;;;7.67;5.12;;;;;;;16.90;90.45;99939.84;1714058;82;21086;-62
2022/06/29 04:56:45;;;;;;;7.20;4.37;;;;;;;16.83;89.65;99938.09;1717669;82;22305;-62
2022/06/29 04:59:13;;;;;;;6.70;4.95;;;;;;;16.76;90.14;99941.64;1710879;82;21570;-61
2022/06/29 05:01:40;;;;;;;8.38;4.60;;;;;;;16.66;89.88;99948.46;1717176;82;21053;-61
2022/06/29 05:04:07;;;;;;;10.82;4.80;;;;;;;16.67;90.34;99944.89;1713669;82;20995;-61
2022/06/29 05:06:34;;;;;;;7.67;4.80;;;;;;;16.69;90.46;99939.05;1716774;82;21116;-61
2022/06/29 05:09:00;;;;;;;5.75;4.22;;;;;;;16.77;90.16;99935.41;1705292;81;21093;-61
2022/06/29 05:11:28;;;;;;;8.48;4.33;;;;;;;16.74;89.92;99932.95;1721901;81;21556;-61
2022/06/29 05:13:55;;;;;;;8.75;3.98;;;;;;;16.67;89.77;99940.94;1714100;82;21571;-62
2022/06/29 05:16:21;;;;;;;8.80;5.00;;;;;;;16.76;90.31;99945.59;1720571;82;21038;-61
2022/06/29 05:18:49;;;;;;;4.97;4.28;;;;;;;16.92;90.44;99940.59;1720359;82;21311;-62
2022/06/29 05:21:18;;;;;;;6.33;4.17;;;;;;;17.05;90.33;99941.39;1715909;82;21053;-61
2022/06/29 05:23:44;;;;;;;9.20;4.05;;;;;;;17.32;90.76;99940.39;1716117;82;22441;-61
2022/06/29 05:26:12;;;;;;;9.10;4.08;;;;;;;17.49;89.56;99936.05;1716105;81;21440;-61
2022/06/29 05:28:39;;;;;;;11.53;4.50;;;;;;;18.07;90.99;99926.98;1708398;82;21010;-62
2022/06/29 05:31:06;;;;;;;8.65;4.17;;;;;;;18.77;89.12;99924.25;1706980;82;20990;-61
2022/06/29 05:33:39;;;;;;;7.78;3.45;;;;;;;19.01;87.85;99921.46;1710354;82;20999;-62
2022/06/29 05:36:08;;;;;;;14.00;3.80;;;;;;;19.13;87.46;99930.25;1722271;81;21133;-63
2022/06/29 05:38:37;;;;;;;7.42;3.75;;;;;;;19.03;86.44;99931.10;1711825;82;21097;-61
2022/06/29 05:41:05;;;;;;;18.60;3.95;;;;;;;19.13;87.14;99925.41;1689299;82;20981;-61
2022/06/29 05:43:33;;;;;;;5.17;3.10;;;;;;;19.25;87.11;99927.59;1710170;81;20948;-63
2022/06/29 05:46:01;;;;;;;8.78;3.25;;;;;;;19.47;86.34;99926.70;1713617;82;21117;-61
2022/06/29 05:48:28;;;;;;;6.90;3.40;;;;;;;20.02;88.70;99934.10;1711907;82;20969;-62
2022/06/29 05:50:54;;;;;;;8.75;3.15;;;;;;;21.05;87.09;99930.17;1712001;81;21194;-62
2022/06/29 05:53:22;;;;;;;10.65;3.35;;;;;;;21.87;85.46;99934.39;1711452;82;21629;-62
2022/06/29 05:55:50;;;;;;;5.42;2.65;;;;;;;22.27;86.30;99933.44;1717223;82;20964;-62
2022/06/29 05:58:19;;;;;;;5.17;2.77;;;;;;;22.60;84.78;99931.25;1706028;82;21628;-61
2022/06/29 06:00:48;;;;;;;4.15;2.15;;;;;;;22.08;81.94;99932.44;1694024;82;21105;-62
2022/06/29 06:03:17;;;;;;;6.00;2.40;;;;;;;21.55;81.76;99936.00;1709915;82;21093;-62
2022/06/29 06:05:44;;;;;;;5.35;2.50;;;;;;;21.03;81.15;99944.06;1718225;82;21038;-62
2022/06/29 06:08:30;;;;;;;13.18;2.90;;;;;;;20.60;81.77;99935.84;1721869;81;21065;-62
2022/06/29 06:10:59;;;;;;;12.15;2.62;;;;;;;20.55;82.96;99939.37;1625303;86;21624;-62
2022/06/29 06:13:26;;;;;;;6.92;2.72;;;;;;;20.43;81.89;99941.72;1630553;86;21030;-63
2022/06/29 06:15:53;;;;;;;;;;;;;;;20.44;82.48;99943.39;1634983;86;21897;-61
2022/06/29 06:18:20;;;;;;;9.03;2.80;;;;;;;20.45;82.79;99947.75;1630953;86;20115;-61
2022/06/29 06:20:49;;;;;;;5.78;2.20;;;;;;;20.54;82.34;99946.98;1637478;86;21527;-62
2022/06/29 06:23:17;;;;;;;4.70;2.80;;;;;;;20.49;81.72;99946.50;1626788;86;21051;-62
2022/06/29 06:25:43;;;;;;;8.40;2.40;;;;;;;20.29;81.00;99946.38;1627497;86;21096;-62
2022/06/29 06:28:10;;;;;;;17.32;2.70;;;;;;;20.30;81.41;99942.74;1632476;86;21613;-61
2022/06/29 06:30:37;;;;;;;8.88;2.47;;;;;;;20.26;81.35;99947.96;1634457;85;21627;-61
2022/06/29 06:33:05;;;;;;;5.45;2.35;;;;;;;20.16;80.72;99943.06;1636782;86;21118;-61
2022/06/29 06:35:32;;;;;;;4.33;2.00;;;;;;;20.35;81.58;99943.20;1639202;86;21036;-62
2022/06/29 06:37:59;;;;;;;6.17;2.80;;;;;;;20.42;81.29;99936.08;1635595;86;21067;-61
2022/06/29 06:43:13;;;;;;;4.72;2.75;;;;;;;20.24;79.69;99930.50;1632903;86;21456;-62
2022/06/29 06:45:43;;;;;;;6.50;2.75;;;;;;;20.22;80.17;99933.30;1634391;86;21038;-62
2022/06/29 06:48:10;;;;;;;4.60;2.60;;;;;;;20.43;80.40;99936.42;1607872;86;21061;-62
2022/06/29 06:50:36;;;;;;;4.35;3.00;;;;;;;20.53;78.38;99929.41;1630694;86;21629;-62
2022/06/29 06:53:07;;;;;;;6.03;3.45;;;;;;;20.43;78.48;99931.12;1610611;86;27285;-63
2022/06/29 06:55:36;;;;;;;6.92;3.27;;;;;;;20.40;78.65;99924.75;1577601;88;21653;-63
2022/06/29 06:58:08;;;;;;;10.90;3.90;;;;;;;20.53;79.26;99922.77;1600105;88;21020;-62
2022/06/29 07:00:37;;;;;;;8.35;3.52;;;;;;;20.44;78.03;99927.48;1596242;88;21145;-62
2022/06/29 07:03:03;;;;;;;;;;;;;;;20.30;78.39;99932.14;1603777;88;21100;-61
2022/06/29 07:05:30;;;;;;;;;;;;;;;20.12;77.96;99939.00;1600515;88;21144;-62
2022/06/29 07:07:57;;;;;;;4.90;2.90;;;;;;;19.98;78.56;99937.98;1601493;87;20304;-62
2022/06/29 07:10:30;;;;;;;5.80;2.87;;;;;;;20.09;79.41;99936.61;1633397;85;21044;-62
2022/06/29 07:12:53;;;;;;;6.65;3.25;;;;;;;20.05;77.95;99937.82;1648736;85;21064;-61
2022/06/29 07:15:20;;;;;;;4.47;3.00;;;;;;;20.30;78.36;99932.14;1649557;85;21155;-61
2022/06/29 07:17:46;;;;;;;;;;;;;;;20.58;78.64;99939.11;1652953;85;21744;-61
2022/06/29 07:20:13;;;;;;;11.80;6.03;;;;;;;20.79;77.59;99937.77;1652148;85;20746;-61
2022/06/29 07:22:40;;;;;;;5.55;2.87;;;;;;;21.00;78.53;99936.36;1651861;85;21549;-61
2022/06/29 07:25:08;;;;;;;5.58;3.30;;;;;;;21.08;76.45;99932.55;1649380;85;21722;-62
2022/06/29 07:27:34;;;;;;;4.67;2.55;;;;;;;20.84;75.85;99933.36;1652609;85;21000;-61
2022/06/29 07:30:01;;;;;;;3.98;3.05;;;;;;;20.79;76.49;99933.29;1650319;85;21428;-61
2022/06/29 07:32:27;;;;;;;5.35;2.98;;;;;;;20.96;76.21;99932.31;1651124;85;20961;-61
2022/06/29 07:34:54;;;;;;;4.35;2.98;;;;;;;21.22;77.16;99933.50;1649674;85;21163;-62
2022/06/29 07:37:21;;;;;;;7.90;3.00;;;;;;;22.04;78.39;99928.39;1651564;85;21668;-61
2022/06/29 07:39:47;;;;;;;5.30;2.70;;;;;;;22.56;75.82;99915.57;1651458;85;21099;-63
2022/06/29 07:42:14;;;;;;;5.60;2.92;;;;;;;22.30;71.03;99926.50;1657884;84;21063;-62
2022/06/29 07:44:42;;;;;;;6.30;3.12;;;;;;;21.71;73.07;99931.48;1646957;85;20999;-62
2022/06/29 07:47:08;;;;;;;6.12;3.05;;;;;;;21.48;72.89;99925.05;1653205;85;21216;-63
2022/06/29 07:49:35;;;;;;;4.65;2.80;;;;;;;21.30;73.15;99928.02;1650859;85;21621;-62
2022/06/29 07:52:02;;;;;;;5.72;3.02;;;;;;;21.27;74.36;99925.63;1649932;85;21111;-62
2022/06/29 07:54:29;;;;;;;4.45;2.75;;;;;;;21.51;75.19;99912.86;1650403;85;21095;-62
2022/06/29 07:56:59;;;;;;;8.25;3.58;;;;;;;22.12;75.59;99906.39;1632390;85;20983;-62
2022/06/29 07:59:26;;;;;;;5.17;2.80;;;;;;;22.33;75.42;99903.61;1653573;85;21642;-62
2022/06/29 08:01:53;;;;;;;6.08;2.30;;;;;;;22.97;75.97;99898.84;1646499;85;21597;-62
2022/06/29 08:04:19;;;;;;;4.75;2.10;;;;;;;23.62;75.69;99896.55;1649272;85;21155;-62
2022/06/29 08:06:46;;;;;;;14.38;3.65;;;;;;;24.04;72.98;99902.09;1646345;85;21146;-62
2022/06/29 08:09:14;;;;;;;7.05;2.40;;;;;;;24.01;73.44;99900.25;1653652;85;21188;-62
2022/06/29 08:11:41;;;;;;;5.72;2.12;;;;;;;23.93;71.05;99898.84;1635965;86;21043;-62
2022/06/29 08:14:07;;;;;;;6.05;2.40;;;;;;;23.07;69.44;99902.77;1641760;86;21017;-62
2022/06/29 08:16:35;;;;;;;10.05;3.33;;;;;;;22.63;71.15;99904.34;1641082;86;21646;-62
2022/06/29 08:19:01;;;;;;;;;;;;;;;22.17;71.03;99911.30;1638948;86;21104;-62
2022/06/29 08:21:28;;;;;;;5.37;2.77;;;;;;;21.82;70.80;99910.08;1635433;86;20104;-62
2022/06/29 08:23:54;;;;;;;5.28;2.40;;;;;;;21.62;71.49;99907.41;1637627;86;21048;-64
2022/06/29 08:26:21;;;;;;;10.05;2.62;;;;;;;21.70;72.26;99905.86;1647339;86;21168;-64
2022/06/29 08:28:48;;;;;;;17.32;3.40;;;;;;;22.02;72.58;99902.43;1640100;86;26095;-64
2022/06/29 08:31:14;;;;;;;25.20;4.70;;;;;;;22.12;71.41;99905.93;1639712;86;21045;-65
2022/06/29 08:33:43;;;;;;;9.45;2.80;;;;;;;22.30;72.35;99902.56;1638200;86;21678;-65
2022/06/29 08:36:10;;;;;;;3.47;2.15;;;;;;;22.58;72.27;99899.97;1640059;86;21570;-64
2022/06/29 08:38:36;;;;;;;7.28;2.50;;;;;;;22.67;70.28;99896.43;1638033;86;20989;-63
2022/06/29 08:41:04;;;;;;;6.60;2.67;;;;;;;22.64;70.42;99900.72;1634848;86;21226;-63
2022/06/29 08:43:30;;;;;;;4.22;1.92;;;;;;;22.71;70.67;99899.99;1635240;85;21490;-63
2022/06/29 08:45:57;;;;;;;5.92;2.62;;;;;;;22.89;69.17;99894.72;1639979;86;25298;-65
2022/06/29 08:48:24;;;;;;;5.90;2.00;;;;;;;22.72;69.39;99894.17;1639796;86;21706;-65
2022/06/29 08:50:54;;;;;;;7.30;2.67;;;;;;;22.63;69.43;99889.70;1640621;86;21009;-64
2022/06/29 08:53:22;;;;;;;2.55;1.92;;;;;;;22.71;69.46;99880.50;1637363;86;21119;-64
2022/06/29 08:55:51;;;;;;;3.22;1.98;;;;;;;23.12;69.72;99894.35;1639610;86;21179;-64
2022/06/29 08:58:21;;;;;;;15.10;3.42;;;;;;;23.63;65.76;99895.55;1644807;86;20993;-66
2022/06/29 09:00:51;;;;;;;2.40;1.45;;;;;;;23.56;68.20;99892.66;1639914;86;21092;-66
2022/06/29 09:03:21;;;;;;;3.83;1.82;;;;;;;23.39;65.96;99898.32;1623042;86;21117;-65
2022/06/29 09:05:54;;;;;;;6.08;2.10;;;;;;;23.06;66.64;99892.29;1638188;86;21709;-65
2022/06/29 09:08:21;;;;;;;6.22;2.40;;;;;;;22.86;64.98;99893.69;1621615;87;21290;-65
2022/06/29 09:10:49;;;;;;;4.30;1.60;;;;;;;22.74;66.40;99901.50;1641005;85;20954;-64
2022/06/29 09:13:24;;;;;;;3.27;1.60;;;;;;;22.60;65.68;99904.63;1654497;85;21088;-65
2022/06/29 09:15:57;;;;;;;4.70;1.70;;;;;;;22.62;66.58;99905.34;1644451;85;21099;-64
2022/06/29 09:18:32;;;;;;;5.10;2.02;;;;;;;22.87;66.06;99904.67;1659815;85;20975;-63
2022/06/29 09:21:06;;;;;;;6.03;1.52;;;;;;;23.42;67.27;99901.18;1660623;85;21258;-64
2022/06/29 09:23:35;;;;;;;4.05;1.60;;;;;;;24.31;65.58;99909.14;1651126;85;21004;-65
2022/06/29 09:26:02;;;;;;;1.98;1.50;;;;;;;24.58;65.65;99901.98;1611685;88;21262;-62
2022/06/29 09:28:31;;;;;;;3.92;1.65;;;;;;;24.69;63.83;99905.72;1649095;85;21657;-64
2022/06/29 09:33:08;;;;;;;2.42;1.80;;;;;;;24.94;63.26;99901.83;1868346;75;22717;-64
2022/06/29 09:35:36;;;;;;;2.37;1.92;;;;;;;25.06;64.51;99899.70;1832492;77;21058;-63
2022/06/29 09:38:25;;;;;;;3.83;1.85;;;;;;;25.15;62.15;99899.61;1828767;77;21456;-63
2022/06/29 09:42:23;;;;;;;10.25;1.80;;;;;;;24.43;62.76;99895.54;1857881;75;22618;-62
2022/06/29 09:44:50;;;;;;;4.58;1.90;;;;;;;24.45;63.83;99896.23;1820104;78;21598;-63
2022/06/29 09:47:20;;;;;;;5.62;1.70;;;;;;;24.28;62.74;99893.45;1821648;78;22323;-63
2022/06/29 09:50:00;;;;;;;2.90;1.70;;;;;;;23.93;62.13;99889.52;1818000;78;22824;-63
2022/06/29 09:52:27;;;;;;;6.15;1.87;;;;;;;24.06;63.56;99889.95;1819083;77;21030;-63
2022/06/29 09:54:59;;;;;;;4.47;1.62;;;;;;;24.30;62.98;99893.28;1791855;78;21053;-61
2022/06/29 09:57:29;;;;;;;3.33;1.60;;;;;;;24.39;62.15;99896.83;1814597;77;20964;-62
2022/06/29 10:02:55;;;;;;;3.22;1.70;;;;;;;23.79;60.47;99899.72;1817655;78;20994;-63
2022/06/29 10:05:54;;;;;;;2.70;1.65;;;;;;;23.30;61.51;99900.56;1814517;77;20995;-63
2022/06/29 10:07:56;;;;;;;3.12;1.50;;;;;;;23.41;62.15;99900.81;1807037;77;21125;-62
2022/06/29 10:10:26;;;;;;;6.60;1.50;;;;;;;23.32;61.45;99894.56;1816013;78;21038;-63
2022/06/29 10:16:09;;;;;;;6.75;1.37;;;;;;;22.94;61.37;99905.77;1814809;77;21019;-63
2022/06/29 10:18:58;;;;;;;3.87;1.70;;;;;;;22.76;61.73;99906.19;1757429;79;21089;-63
2022/06/29 10:21:29;;;;;;;4.15;1.50;;;;;;;22.60;61.58;99905.97;1770660;80;21060;-64
2022/06/29 10:23:58;;;;;;;5.03;1.60;;;;;;;22.56;61.91;99907.59;1780766;78;22596;-64
2022/06/29 10:26:37;;;;;;;28.95;2.72;;;;;;;22.63;62.10;99909.66;1779794;78;21144;-63
2022/06/29 10:29:21;;;;;;;15.00;2.27;;;;;;;22.69;61.78;99911.77;1752603;80;21056;-64
2022/06/29 10:31:57;;;;;;;5.92;1.65;;;;;;;22.69;61.96;99915.27;1778396;80;21028;-64
2022/06/29 10:34:38;;;;;;;5.95;2.05;;;;;;;22.56;60.84;99924.88;1774564;80;20997;-63
2022/06/29 10:37:15;;;;;;;4.55;1.67;;;;;;;22.33;61.59;99923.55;1771583;80;21009;-64
2022/06/29 10:39:48;;;;;;;;;;;;;;;22.21;61.50;99920.69;1771579;78;22015;-63
2022/06/29 10:45:20;;;;;;;5.08;1.65;;;;;;;21.93;61.58;99919.23;1758464;81;21609;-63
2022/06/29 10:47:58;;;;;;;3.70;1.80;;;;;;;21.93;61.72;99921.89;1733487;81;21033;-63
2022/06/29 10:50:28;;;;;;;1.77;1.42;;;;;;;22.19;61.96;99926.16;1756184;79;21185;-62
2022/06/29 10:53:11;;;;;;;2.42;1.32;;;;;;;22.58;61.18;99930.57;1757895;79;21044;-64
2022/06/29 10:55:43;;;;;;;2.95;1.90;;;;;;;22.77;61.07;99922.52;1727570;80;21759;-63
2022/06/29 10:58:34;;;;;;;3.20;1.55;;;;;;;22.83;60.88;99915.78;1732113;80;21001;-63
2022/06/29 11:01:08;;;;;;;4.05;2.10;;;;;;;23.05;61.44;99918.55;1767404;79;20958;-63
2022/06/29 11:03:54;;;;;;;5.20;1.47;;;;;;;23.11;60.06;99909.50;1733313;81;21123;-61
2022/06/29 11:12:04;;;;;;;8.23;1.92;;;;;;;22.79;60.02;99913.88;1745204;81;21008;-64
2022/06/29 11:20:20;;;;;;;5.17;2.12;;;;;;;23.48;60.31;99899.73;1726448;81;21135;-64
2022/06/29 11:22:56;;;;;;;3.08;1.90;;;;;;;23.57;59.61;99901.48;1733544;81;21585;-63
2022/06/29 11:25:24;;;;;;;5.50;1.95;;;;;;;23.00;59.20;99910.53;1666325;81;21104;-63
2022/06/29 11:27:53;;;;;;;7.83;2.05;;;;;;;22.68;60.03;99904.25;1732932;81;21128;-63
2022/06/29 11:30:23;;;;;;;6.08;2.37;;;;;;;22.84;60.91;99900.97;1740836;81;21645;-64
2022/06/29 11:32:50;;;;;;;6.55;1.95;;;;;;;23.46;61.21;99888.72;1720233;81;21046;-64
2022/06/29 11:35:24;;;;;;;3.55;1.87;;;;;;;23.80;59.87;99894.72;1724818;82;20957;-63
2022/06/29 11:38:01;;;;;;;2.47;1.72;;;;;;;24.03;60.82;99887.57;1731799;81;21056;-63
2022/06/29 11:40:38;;;;;;;3.17;1.60;;;;;;;24.19;59.09;99889.03;1724379;81;21147;-63
2022/06/29 11:43:11;;;;;;;4.45;2.15;;;;;;;24.07;59.09;99876.95;1710012;82;21848;-63
2022/06/29 11:45:45;;;;;;;3.80;1.80;;;;;;;23.73;58.99;99877.69;1739859;81;21227;-63
2022/06/29 11:48:18;;;;;;;2.75;1.90;;;;;;;23.18;58.68;99877.77;1741491;81;21796;-63
2022/06/29 11:50:56;;;;;;;5.05;1.98;;;;;;;22.93;59.87;99869.46;1737776;81;21135;-63
2022/06/29 11:53:47;;;;;;;2.47;1.62;;;;;;;23.24;59.91;99869.17;1731528;81;21012;-63
2022/06/29 11:56:22;;;;;;;3.20;1.75;;;;;;;23.25;59.46;99868.20;1730753;81;21135;-63
2022/06/29 11:58:51;;;;;;;2.75;1.52;;;;;;;23.32;59.47;99863.93;1736083;81;21077;-63
2022/06/29 12:01:21;;;;;;;5.05;1.87;;;;;;;23.53;58.69;99872.98;1737286;81;21001;-64
2022/06/29 12:03:57;;;;;;;2.75;1.65;;;;;;;23.85;58.04;99879.11;1711257;81;21318;-63
2022/06/29 12:06:28;;;;;;;8.00;1.90;;;;;;;24.04;58.33;99863.92;1701521;83;21655;-63
2022/06/29 12:08:59;;;;;;;8.25;2.17;;;;;;;24.21;58.28;99851.03;1699848;83;21019;-62
2022/06/29 12:11:28;;;;;;;6.80;1.72;;;;;;;24.38;58.92;99841.30;1702846;83;21160;-63
2022/06/29 12:13:55;;;;;;;4.30;1.67;;;;;;;24.65;58.17;99832.29;1710022;83;21099;-64